createdAt,value
2018-11-11T00:00:43.034Z,2.80
2018-11-11T00:03:13.359Z,3.30
2018-11-11T00:05:43.731Z,2.87
2018-11-11T00:08:14.128Z,2.80
2018-11-11T00:10:44.499Z,3.17
2018-11-11T00:13:15.649Z,2.87
2018-11-11T00:15:46.812Z,2.47
2018-11-11T00:18:17.178Z,2.67
2018-11-11T00:20:47.547Z,2.80
2018-11-11T00:23:17.956Z,2.87
2018-11-11T00:25:48.327Z,2.90
2018-11-11T00:28:18.696Z,2.87
2018-11-11T00:30:49.089Z,2.67
2018-11-11T00:33:26.624Z,2.53
2018-11-11T00:35:57.037Z,2.77
2018-11-11T00:38:27.356Z,2.40
2018-11-11T00:40:57.706Z,3.10
2018-11-11T00:43:28.863Z,3.23
2018-11-11T00:45:59.995Z,3.07
2018-11-11T00:48:30.374Z,2.77
2018-11-11T00:51:08.100Z,2.47
2018-11-11T00:53:38.456Z,3.33
2018-11-11T00:56:08.843Z,2.43
2018-11-11T00:58:39.239Z,3.30
2018-11-11T01:01:09.559Z,2.90
2018-11-11T01:03:39.933Z,2.60
2018-11-11T01:06:10.274Z,2.80
2018-11-11T01:08:40.591Z,2.20
2018-11-11T01:11:10.952Z,2.43
2018-11-11T01:13:41.349Z,1.97
2018-11-11T01:16:11.781Z,2.57
2018-11-11T01:19:03.552Z,2.73
2018-11-11T01:21:35.973Z,2.47
2018-11-11T01:24:06.397Z,1.80
2018-11-11T01:26:36.758Z,2.37
2018-11-11T01:29:07.134Z,2.73
2018-11-11T01:31:38.516Z,2.60
2018-11-11T01:34:08.857Z,2.13
2018-11-11T01:36:39.167Z,2.80
2018-11-11T01:39:10.308Z,2.30
2018-11-11T01:41:41.417Z,2.57
2018-11-11T01:44:11.864Z,2.43
2018-11-11T01:46:42.111Z,2.00
2018-11-11T01:49:13.281Z,2.30
2018-11-11T01:51:43.652Z,2.00
2018-11-11T01:54:14.033Z,2.53
2018-11-11T01:56:44.409Z,1.93
2018-11-11T01:59:14.729Z,2.47
2018-11-11T02:01:45.110Z,2.00
2018-11-11T02:04:15.529Z,2.13
2018-11-11T02:06:45.911Z,2.13
2018-11-11T02:09:16.480Z,1.63
2018-11-11T02:11:46.872Z,2.13
2018-11-11T02:14:17.188Z,1.80
2018-11-11T02:16:47.498Z,1.83
2018-11-11T02:19:38.234Z,1.57
2018-11-11T02:22:08.589Z,2.00
2018-11-11T02:24:38.945Z,2.33
2018-11-11T02:27:13.384Z,1.97
2018-11-11T02:29:43.764Z,2.10
2018-11-11T02:32:14.127Z,1.63
2018-11-11T02:34:51.841Z,1.63
2018-11-11T02:37:22.265Z,1.87
2018-11-11T02:39:55.613Z,1.60
2018-11-11T02:42:26.015Z,2.23
2018-11-11T02:44:56.321Z,2.00
2018-11-11T02:47:26.693Z,1.53
2018-11-11T02:49:57.103Z,1.93
2018-11-11T02:52:28.237Z,1.87
2018-11-11T02:54:58.608Z,1.97
2018-11-11T03:00:10.717Z,2.23
2018-11-11T03:02:41.071Z,1.90
2018-11-11T03:05:11.463Z,2.10
2018-11-11T03:07:42.520Z,2.30
2018-11-11T03:10:12.864Z,1.93
2018-11-11T03:13:03.362Z,1.83
2018-11-11T03:15:33.768Z,2.37
2018-11-11T03:18:04.190Z,2.23
2018-11-11T03:20:34.510Z,2.43
2018-11-11T03:23:04.856Z,2.37
2018-11-11T03:25:35.173Z,2.50
2018-11-11T03:28:05.492Z,2.40
2018-11-11T03:30:35.896Z,2.70
2018-11-11T03:33:06.274Z,2.70
2018-11-11T03:35:36.650Z,3.00
2018-11-11T03:38:07.825Z,2.43
2018-11-11T03:40:39.216Z,2.63
2018-11-11T03:43:09.595Z,2.57
2018-11-11T03:45:39.943Z,2.30
2018-11-11T03:48:31.674Z,2.60
2018-11-11T03:51:06.171Z,2.17
2018-11-11T03:53:36.535Z,2.30
2018-11-11T03:56:07.116Z,2.40
2018-11-11T03:58:37.526Z,1.53
2018-11-11T04:01:07.893Z,2.40
2018-11-11T04:03:44.431Z,2.00
2018-11-11T04:06:14.739Z,2.00
2018-11-11T04:08:45.098Z,1.47
2018-11-11T04:11:15.490Z,2.40
2018-11-11T04:13:46.598Z,1.97
2018-11-11T04:16:16.965Z,1.90
2018-11-11T04:18:48.073Z,1.57
2018-11-11T04:21:18.455Z,1.97
2018-11-11T04:23:48.810Z,1.70
2018-11-11T04:26:38.310Z,1.97
2018-11-11T04:29:08.622Z,2.80
2018-11-11T04:31:38.936Z,1.87
2018-11-11T04:34:09.336Z,1.83
2018-11-11T04:36:39.715Z,1.60
2018-11-11T04:39:10.142Z,1.77
2018-11-11T04:41:40.416Z,1.80
2018-11-11T04:44:10.792Z,2.13
2018-11-11T04:46:41.134Z,2.30
2018-11-11T04:49:12.313Z,1.77
2018-11-11T04:51:42.618Z,2.20
2018-11-11T04:54:12.966Z,2.10
2018-11-11T04:56:43.370Z,1.93
2018-11-11T04:59:14.508Z,2.60
2018-11-11T05:01:45.623Z,1.90
2018-11-11T05:04:16.016Z,2.20
2018-11-11T05:06:48.415Z,1.93
2018-11-11T05:09:18.796Z,1.33
2018-11-11T05:11:49.181Z,2.37
2018-11-11T05:14:19.500Z,1.90
2018-11-11T05:16:49.877Z,1.93
2018-11-11T05:19:20.283Z,2.80
2018-11-11T05:21:51.407Z,1.97
2018-11-11T05:24:21.712Z,1.93
2018-11-11T05:26:52.116Z,2.13
2018-11-11T05:29:22.469Z,2.40
2018-11-11T05:31:52.849Z,2.00
2018-11-11T05:34:33.759Z,2.47
2018-11-11T05:37:04.141Z,2.13
2018-11-11T05:39:34.511Z,1.73
2018-11-11T05:42:04.910Z,2.17
2018-11-11T05:44:35.278Z,1.50
2018-11-11T05:47:05.647Z,1.37
2018-11-11T05:49:36.049Z,1.97
2018-11-11T05:52:06.425Z,1.77
2018-11-11T05:54:40.829Z,1.97
2018-11-11T05:57:11.170Z,1.97
2018-11-11T05:59:43.533Z,2.17
2018-11-11T06:02:13.887Z,2.43
2018-11-11T06:04:44.278Z,1.67
2018-11-11T06:07:14.600Z,1.60
2018-11-11T06:09:44.917Z,2.40
2018-11-11T06:12:18.117Z,1.90
2018-11-11T06:14:48.468Z,1.90
2018-11-11T06:17:20.878Z,1.83
2018-11-11T06:19:51.224Z,1.97
2018-11-11T06:22:21.583Z,1.50
2018-11-11T06:24:51.901Z,1.83
2018-11-11T06:27:22.338Z,1.30
2018-11-11T06:29:52.743Z,1.73
2018-11-11T06:32:23.074Z,2.50
2018-11-11T06:34:53.417Z,2.23
2018-11-11T06:37:23.794Z,1.73
2018-11-11T06:39:54.158Z,1.43
2018-11-11T06:42:24.558Z,1.17
2018-11-11T06:44:54.916Z,1.77
2018-11-11T06:47:25.295Z,2.23
2018-11-11T06:49:55.714Z,1.43
2018-11-11T06:52:26.078Z,1.43
2018-11-11T06:54:56.439Z,1.50
2018-11-11T06:57:47.282Z,1.40
2018-11-11T07:00:17.600Z,0.97
2018-11-11T07:05:31.695Z,1.53
2018-11-11T07:08:02.815Z,1.47
2018-11-11T07:10:33.184Z,1.50
2018-11-11T07:13:03.591Z,1.37
2018-11-11T07:15:34.724Z,1.07
2018-11-11T07:18:05.854Z,1.00
2018-11-11T07:20:36.267Z,1.50
2018-11-11T07:23:07.598Z,1.23
2018-11-11T07:25:42.096Z,1.00
2018-11-11T07:28:12.473Z,1.30
2018-11-11T07:30:42.845Z,1.30
2018-11-11T07:33:13.229Z,1.63
2018-11-11T07:35:43.600Z,1.50
2018-11-11T07:38:13.976Z,1.63
2018-11-11T07:40:44.384Z,1.43
2018-11-11T07:43:34.124Z,1.60
2018-11-11T07:46:04.528Z,1.70
2018-11-11T07:48:34.894Z,1.43
2018-11-11T07:51:05.266Z,1.80
2018-11-11T07:53:35.657Z,1.60
2018-11-11T07:56:13.478Z,1.85
2018-11-11T07:58:43.880Z,1.30
2018-11-11T08:01:17.268Z,1.83
2018-11-11T08:03:47.624Z,1.63
2018-11-11T08:06:18.984Z,1.10
2018-11-11T08:08:49.340Z,2.00
2018-11-11T08:11:43.701Z,1.20
2018-11-11T08:14:14.053Z,1.67
2018-11-11T08:16:45.135Z,1.43
2018-11-11T08:19:16.402Z,1.57
2018-11-11T08:21:50.798Z,1.63
2018-11-11T08:24:21.180Z,1.53
2018-11-11T08:26:52.348Z,1.70
2018-11-11T08:29:23.493Z,1.77
2018-11-11T08:31:53.865Z,1.57
2018-11-11T08:34:24.265Z,2.00
2018-11-11T08:36:54.637Z,1.77
2018-11-11T08:39:26.016Z,1.80
2018-11-11T08:41:57.181Z,1.80
2018-11-11T08:44:27.627Z,1.87
2018-11-11T08:47:17.129Z,1.60
2018-11-11T08:49:47.504Z,2.47
2018-11-11T08:52:17.815Z,2.03
2018-11-11T08:54:48.216Z,1.93
2018-11-11T08:57:18.589Z,2.30
2018-11-11T08:59:48.954Z,2.37
2018-11-11T09:02:19.299Z,2.13
2018-11-11T09:04:49.679Z,2.10
2018-11-11T09:07:19.997Z,1.53
2018-11-11T09:09:50.392Z,1.90
2018-11-11T09:12:21.523Z,2.30
2018-11-11T09:14:51.900Z,2.70
2018-11-11T09:17:22.348Z,2.37
2018-11-11T09:19:52.665Z,2.17
2018-11-11T09:22:25.025Z,2.33
2018-11-11T09:24:55.425Z,2.33
2018-11-11T09:27:25.733Z,1.67
2018-11-11T09:29:57.069Z,2.80
2018-11-11T09:32:27.457Z,2.70
2018-11-11T09:34:57.830Z,1.97
2018-11-11T09:37:30.970Z,2.80
2018-11-11T09:40:03.386Z,3.20
2018-11-11T09:42:33.902Z,2.57
2018-11-11T09:45:24.550Z,2.60
2018-11-11T09:47:55.101Z,2.63
2018-11-11T09:50:25.215Z,3.80
2018-11-11T09:52:55.560Z,2.77
2018-11-11T09:55:33.234Z,2.00
2018-11-11T09:58:03.624Z,2.00
2018-11-11T10:00:33.972Z,2.30
2018-11-11T10:03:05.297Z,2.10
2018-11-11T10:05:35.644Z,2.60
2018-11-11T10:08:06.068Z,2.37
2018-11-11T10:10:41.571Z,2.60
2018-11-11T10:13:14.619Z,2.50
2018-11-11T10:15:47.724Z,3.33
2018-11-11T10:18:18.040Z,2.93
2018-11-11T10:23:36.837Z,2.23
2018-11-11T10:26:27.358Z,2.77
2018-11-11T10:28:57.716Z,2.17
2018-11-11T10:31:28.828Z,2.40
2018-11-11T10:34:01.668Z,2.73
2018-11-11T10:36:34.685Z,4.23
2018-11-11T10:39:05.076Z,3.33
2018-11-11T10:41:35.406Z,4.00
2018-11-11T10:44:05.801Z,3.63
2018-11-11T10:46:36.156Z,3.40
2018-11-11T10:49:06.543Z,3.20
2018-11-11T10:51:42.544Z,3.17
2018-11-11T10:54:15.532Z,3.27
2018-11-11T10:56:45.849Z,3.13
2018-11-11T10:59:16.472Z,2.43
2018-11-11T11:01:47.875Z,3.07
2018-11-11T11:04:24.097Z,3.40
2018-11-11T11:06:54.501Z,2.90
2018-11-11T11:09:24.860Z,3.50
2018-11-11T11:11:57.296Z,2.97
2018-11-11T11:14:27.664Z,2.97
2018-11-11T11:17:02.902Z,3.20
2018-11-11T11:19:33.318Z,2.53
2018-11-11T11:22:03.682Z,2.23
2018-11-11T11:24:34.076Z,2.43
2018-11-11T11:27:07.331Z,2.70
2018-11-11T11:29:40.468Z,2.30
2018-11-11T11:32:15.878Z,2.47
2018-11-11T11:34:46.910Z,2.10
2018-11-11T11:37:17.272Z,1.77
2018-11-11T11:39:47.647Z,1.97
2018-11-11T11:42:18.021Z,1.70
2018-11-11T11:44:56.659Z,2.53
2018-11-11T11:47:34.464Z,2.33
2018-11-11T11:50:04.855Z,2.30
2018-11-11T11:52:35.117Z,1.40
2018-11-11T11:55:06.155Z,1.60
2018-11-11T11:57:46.365Z,2.03
2018-11-11T12:00:17.501Z,1.90
2018-11-11T12:02:51.532Z,1.77
2018-11-11T12:05:21.870Z,2.57
2018-11-11T12:07:54.861Z,2.27
2018-11-11T12:10:28.085Z,2.83
2018-11-11T12:13:22.422Z,2.43
2018-11-11T12:15:52.759Z,3.07
2018-11-11T12:18:23.067Z,2.23
2018-11-11T12:23:36.769Z,2.40
2018-11-11T12:26:10.199Z,2.93
2018-11-11T12:28:40.575Z,3.10
2018-11-11T12:31:10.916Z,2.97
2018-11-11T12:33:48.603Z,3.30
2018-11-11T12:36:29.447Z,2.97
2018-11-11T12:39:03.160Z,2.83
2018-11-11T12:41:37.515Z,2.90
2018-11-11T12:44:17.528Z,3.00
2018-11-11T12:46:48.342Z,2.77
2018-11-11T12:49:18.582Z,2.33
2018-11-11T12:51:49.665Z,2.57
2018-11-11T12:54:27.400Z,3.07
2018-11-11T12:57:00.426Z,2.80
2018-11-11T12:59:33.566Z,2.13
2018-11-11T13:02:06.376Z,2.40
2018-11-11T13:04:37.549Z,2.27
2018-11-11T13:07:07.900Z,2.27
2018-11-11T13:09:57.323Z,2.63
2018-11-11T13:12:31.269Z,2.80
2018-11-11T13:15:19.896Z,2.47
2018-11-11T13:17:51.071Z,2.47
2018-11-11T13:20:22.470Z,3.07
2018-11-11T13:22:52.979Z,3.97
2018-11-11T13:25:26.105Z,4.70
2018-11-11T13:28:02.581Z,4.03
2018-11-11T13:30:33.741Z,3.53
2018-11-11T13:33:04.114Z,2.53
2018-11-11T13:35:34.419Z,2.77
2018-11-11T13:38:08.011Z,3.60
2018-11-11T13:40:43.993Z,3.50
2018-11-11T13:43:14.438Z,3.50
2018-11-11T13:45:47.239Z,2.73
2018-11-11T13:48:22.932Z,2.43
2018-11-11T13:50:55.353Z,2.73
2018-11-11T13:53:25.746Z,2.97
2018-11-11T13:55:59.010Z,2.70
2018-11-11T13:58:29.371Z,2.60
2018-11-11T14:00:59.737Z,3.20
2018-11-11T14:03:33.596Z,2.80
2018-11-11T14:06:13.781Z,2.70
2018-11-11T14:08:44.137Z,2.80
2018-11-11T14:11:14.574Z,3.00
2018-11-11T14:13:44.922Z,2.90
2018-11-11T14:16:20.333Z,2.60
2018-11-11T14:18:51.581Z,2.77
2018-11-11T14:21:21.822Z,2.67
2018-11-11T14:23:54.371Z,3.00
2018-11-11T14:26:25.712Z,3.70
2018-11-11T14:28:56.007Z,4.30
2018-11-11T14:31:26.403Z,3.40
2018-11-11T14:33:56.771Z,2.47
2018-11-11T14:36:32.410Z,2.03
2018-11-11T14:39:02.730Z,3.08
2018-11-11T14:41:33.116Z,3.28
2018-11-11T14:44:03.512Z,2.67
2018-11-11T14:46:34.903Z,2.47
2018-11-11T14:51:55.870Z,2.03
2018-11-11T14:54:31.670Z,2.30
2018-11-11T14:57:04.722Z,2.17
2018-11-11T14:59:38.033Z,2.33
2018-11-11T15:02:09.203Z,2.60
2018-11-11T15:04:39.566Z,2.30
2018-11-11T15:07:10.946Z,2.57
2018-11-11T15:09:41.315Z,1.90
2018-11-11T15:12:11.724Z,2.20
2018-11-11T15:14:44.908Z,1.93
2018-11-11T15:17:16.042Z,2.33
2018-11-11T15:19:49.133Z,3.70
2018-11-11T15:22:25.788Z,3.27
2018-11-11T15:24:59.026Z,2.03
2018-11-11T15:27:29.411Z,2.90
2018-11-11T15:29:59.786Z,2.60
2018-11-11T15:32:30.200Z,2.50
2018-11-11T15:35:06.342Z,2.70
2018-11-11T15:37:40.212Z,2.90
2018-11-11T15:40:34.670Z,3.40
2018-11-11T15:43:07.913Z,3.00
2018-11-11T15:45:40.889Z,3.40
2018-11-11T15:48:11.267Z,3.80
2018-11-11T15:50:41.669Z,3.43
2018-11-11T15:53:11.989Z,2.80
2018-11-11T15:55:42.380Z,2.87
2018-11-11T15:58:16.852Z,2.77
2018-11-11T16:00:47.985Z,3.00
2018-11-11T16:03:21.166Z,2.73
2018-11-11T16:05:51.560Z,3.67
2018-11-11T16:08:28.724Z,2.93
2018-11-11T16:10:59.141Z,3.63
2018-11-11T16:13:29.525Z,3.53
2018-11-11T16:15:59.850Z,3.10
2018-11-11T16:18:32.777Z,3.00
2018-11-11T16:21:03.037Z,4.73
2018-11-11T16:23:35.507Z,3.47
2018-11-11T16:26:09.442Z,3.50
2018-11-11T16:28:42.477Z,2.70
2018-11-11T16:31:15.861Z,2.40
2018-11-11T16:33:46.296Z,2.30
2018-11-11T16:36:19.468Z,2.03
2018-11-11T16:38:49.787Z,2.40
2018-11-11T16:41:23.150Z,2.57
2018-11-11T16:43:53.395Z,3.12
2018-11-11T16:46:45.782Z,3.62
2018-11-11T16:49:16.153Z,3.20
2018-11-11T16:51:46.534Z,2.60
2018-11-11T16:54:17.054Z,2.07
2018-11-11T16:56:47.261Z,1.97
2018-11-11T16:59:18.341Z,2.00
2018-11-11T17:01:48.740Z,2.53
2018-11-11T17:04:19.947Z,2.30
2018-11-11T17:09:39.755Z,2.80
2018-11-11T17:12:12.645Z,2.73
2018-11-11T17:14:43.007Z,2.53
2018-11-11T17:17:14.164Z,2.70
2018-11-11T17:19:44.529Z,2.73
2018-11-11T17:22:15.183Z,2.87
2018-11-11T17:24:48.201Z,2.67
2018-11-11T17:27:21.481Z,2.80
2018-11-11T17:29:56.994Z,4.10
2018-11-11T17:32:28.369Z,3.80
2018-11-11T17:35:01.626Z,3.70
2018-11-11T17:37:35.069Z,3.53
2018-11-11T17:40:06.215Z,3.73
2018-11-11T17:42:36.600Z,4.50
2018-11-11T17:45:06.966Z,3.87
2018-11-11T17:47:39.892Z,3.50
2018-11-11T17:50:13.308Z,3.53
2018-11-11T17:52:43.722Z,3.23
2018-11-11T17:55:20.219Z,3.20
2018-11-11T17:58:09.937Z,3.10
2018-11-11T18:00:40.339Z,3.53
2018-11-11T18:03:10.657Z,3.17
2018-11-11T18:05:41.021Z,3.33
2018-11-11T18:08:14.388Z,3.33
2018-11-11T18:10:45.576Z,2.83
2018-11-11T18:13:18.396Z,3.13
2018-11-11T18:15:51.709Z,2.53
2018-11-11T18:18:22.062Z,3.10
2018-11-11T18:20:58.697Z,2.93
2018-11-11T18:23:29.061Z,3.03
2018-11-11T18:25:59.418Z,2.60
2018-11-11T18:28:33.958Z,2.87
2018-11-11T18:31:04.985Z,4.00
2018-11-11T18:33:47.193Z,3.10
2018-11-11T18:36:20.213Z,4.45
2018-11-11T18:38:53.238Z,3.63
2018-11-11T18:41:23.657Z,4.10
2018-11-11T18:43:54.784Z,3.33
2018-11-11T18:46:25.157Z,3.40
2018-11-11T18:48:59.641Z,3.33
2018-11-11T18:51:37.624Z,3.20
2018-11-11T18:54:08.028Z,3.03
2018-11-11T18:56:59.844Z,3.57
2018-11-11T18:59:30.220Z,3.17
2018-11-11T19:02:01.358Z,3.33
2018-11-11T19:04:31.722Z,3.30
2018-11-11T19:07:02.124Z,3.70
2018-11-11T19:09:35.297Z,6.40
2018-11-11T19:12:05.670Z,6.27
2018-11-11T19:14:36.069Z,5.57
2018-11-11T19:17:07.185Z,7.50
2018-11-11T19:19:37.564Z,5.33
2018-11-11T19:22:10.509Z,4.10
2018-11-11T19:24:44.047Z,3.80
2018-11-11T19:27:14.341Z,2.83
2018-11-11T19:29:44.735Z,3.17
2018-11-11T19:32:36.514Z,3.70
2018-11-11T19:35:06.925Z,4.50
2018-11-11T19:37:38.007Z,3.90
2018-11-11T19:40:08.381Z,4.13
2018-11-11T19:42:38.720Z,3.47
2018-11-11T19:45:09.860Z,3.50
2018-11-11T19:47:40.224Z,3.83
2018-11-11T19:50:10.561Z,4.20
2018-11-11T19:52:42.995Z,4.27
2018-11-11T19:55:14.131Z,3.67
2018-11-11T19:57:44.471Z,3.67
2018-11-11T20:02:58.496Z,3.60
2018-11-11T20:05:28.864Z,3.07
2018-11-11T20:07:59.948Z,3.37
2018-11-11T20:10:39.114Z,3.10
2018-11-11T20:13:09.479Z,2.80
2018-11-11T20:15:39.846Z,3.00
2018-11-11T20:18:10.241Z,2.50
2018-11-11T20:20:40.607Z,2.67
2018-11-11T20:23:10.988Z,2.67
2018-11-11T20:25:44.334Z,3.13
2018-11-11T20:28:17.313Z,3.00
2018-11-11T20:30:47.650Z,2.70
2018-11-11T20:33:18.053Z,3.67
2018-11-11T20:35:50.543Z,3.60
2018-11-11T20:38:24.376Z,3.00
2018-11-11T20:40:57.212Z,2.70
2018-11-11T20:43:30.308Z,2.50
2018-11-11T20:46:00.600Z,2.33
2018-11-11T20:48:30.968Z,2.60
2018-11-11T20:51:01.322Z,2.23
2018-11-11T20:53:34.433Z,2.97
2018-11-11T20:56:07.343Z,2.20
2018-11-11T20:58:39.684Z,3.40
2018-11-11T21:01:10.820Z,3.67
2018-11-11T21:03:42.005Z,3.00
2018-11-11T21:06:12.295Z,3.10
2018-11-11T21:08:43.434Z,2.97
2018-11-11T21:11:14.573Z,3.33
2018-11-11T21:13:44.890Z,3.10
2018-11-11T21:16:15.211Z,3.00
2018-11-11T21:18:48.412Z,3.63
2018-11-11T21:21:21.557Z,4.20
2018-11-11T21:23:51.814Z,3.77
2018-11-11T21:26:24.911Z,4.80
2018-11-11T21:28:55.278Z,4.57
2018-11-11T21:31:25.647Z,4.27
2018-11-11T21:33:56.117Z,4.00
2018-11-11T21:36:31.530Z,4.30
2018-11-11T21:39:04.657Z,5.37
2018-11-11T21:41:35.002Z,4.13
2018-11-11T21:44:06.334Z,3.80
2018-11-11T21:46:39.578Z,3.37
2018-11-11T21:49:09.945Z,3.07
2018-11-11T21:51:42.058Z,3.50
2018-11-11T21:54:12.469Z,3.53
2018-11-11T21:56:42.819Z,3.30
2018-11-11T21:59:16.838Z,3.67
2018-11-11T22:01:47.254Z,3.27
2018-11-11T22:04:20.294Z,3.37
2018-11-11T22:06:50.663Z,3.10
2018-11-11T22:09:42.525Z,3.10
2018-11-11T22:12:12.846Z,3.33
2018-11-11T22:14:43.224Z,3.50
2018-11-11T22:17:13.623Z,3.53
2018-11-11T22:19:44.770Z,9.87
2018-11-11T22:22:15.917Z,7.27
2018-11-11T22:24:47.000Z,6.27
2018-11-11T22:27:36.484Z,5.53
2018-11-11T22:30:06.885Z,5.37
2018-11-11T22:32:37.269Z,6.33
2018-11-11T22:35:07.644Z,5.10
2018-11-11T22:37:56.384Z,4.50
2018-11-11T22:40:26.765Z,4.53
2018-11-11T22:42:57.082Z,4.23
2018-11-11T22:45:27.465Z,3.60
2018-11-11T22:47:57.834Z,3.13
2018-11-11T22:50:28.186Z,3.30
2018-11-11T22:52:59.299Z,3.87
2018-11-11T22:55:29.620Z,4.03
2018-11-11T22:57:59.976Z,3.70
2018-11-11T23:00:30.375Z,4.70
2018-11-11T23:03:00.715Z,5.73
2018-11-11T23:05:31.091Z,6.00
2018-11-11T23:08:01.509Z,5.10
2018-11-11T23:10:32.889Z,4.57
2018-11-11T23:13:24.697Z,4.47
2018-11-11T23:15:55.107Z,4.07
2018-11-11T23:18:25.445Z,4.30
2018-11-11T23:20:55.845Z,3.13
2018-11-11T23:23:26.927Z,3.87
2018-11-11T23:25:57.241Z,5.07
2018-11-11T23:28:27.738Z,4.73
2018-11-11T23:30:58.002Z,3.63
2018-11-11T23:33:28.376Z,4.27
2018-11-11T23:35:58.774Z,4.60
2018-11-11T23:38:33.230Z,4.30
2018-11-11T23:41:03.609Z,3.80
2018-11-11T23:43:40.146Z,3.70
2018-11-11T23:46:11.289Z,3.57
2018-11-11T23:48:42.368Z,3.47
2018-11-11T23:51:32.140Z,4.00
2018-11-11T23:54:04.538Z,3.83
2018-11-11T23:56:34.911Z,4.13
2018-11-11T23:59:06.074Z,4.13
